You are not logged in, Click here to log in
ICAO: EGLC Country: 倫敦碼頭區的機場,由於該機場的跑道距離,最大能起降的機型為A318
Latitude: 51.5053 Longitude: 0.055278
Total Arrivals: 4 Total Departures: 0
Latest Arrival: CX252X (EGLL-EGLC)Stone. Chang Latest Departure: (-).
Scenery:
METAR : EGLC 210720Z AUTO 23005KT 170V260 9999 NCD 16/11 Q1028

倫敦城市機場LCY